Time;durP1;ratioP1;P1;durP2;ratioP2;P2;SDS_P1;SDS_P2;PMS_P1;PMS_P2;Temp;Humidity;BMP_temperature;BMP_pressure;BME280_temperature;BME280_humidity;BME280_pressure;Samples;Min_cycle;Max_cycle;Signal;HPM_P1;HPM_P2
2022/01/11 00:01:27;;;;;;;146.70;28.13;;;-0.60;99.90;;;;;;4847502;29;20056;-82
2022/01/11 00:04:57;;;;;;;;;;;;;;;;;;;;;
2022/01/11 00:56:03;;;;;;;68.65;24.88;;;-0.20;99.90;;;;;;6117467;22;4128420;-82
2022/01/11 00:58:33;;;;;;;76.95;26.75;;;-0.30;99.90;;;;;;6199706;23;20016;-83
2022/01/11 01:01:09;;;;;;;65.68;26.88;;;-0.50;99.90;;;;;;6198949;23;20050;-82
2022/01/11 01:03:53;;;;;;;95.10;29.15;;;-0.10;99.90;;;;;;6198611;23;20023;-82
2022/01/11 01:06:25;;;;;;;58.45;29.48;;;-0.40;99.90;;;;;;6194608;23;20012;-81
2022/01/11 01:09:00;;;;;;;73.85;28.95;;;-0.30;99.90;;;;;;6195167;23;20074;-83
2022/01/11 01:11:34;;;;;;;47.47;27.95;;;-0.40;99.90;;;;;;6169830;23;20336;-82
2022/01/11 01:14:05;;;;;;;63.33;28.60;;;0.80;99.90;;;;;;6169783;23;20059;-81
2022/01/11 01:16:31;;;;;;;74.63;29.02;;;0.80;99.90;;;;;;6194557;23;20099;-81
2022/01/11 01:18:57;;;;;;;69.15;27.52;;;0.30;99.90;;;;;;6194098;23;20517;-81
2022/01/11 01:21:26;;;;;;;61.60;25.42;;;0.40;99.90;;;;;;6170355;23;20020;-82
2022/01/11 01:23:52;;;;;;;62.85;26.83;;;0.60;99.90;;;;;;6169257;23;20416;-82
2022/01/11 01:26:18;;;;;;;66.40;26.55;;;-1.50;99.90;;;;;;6169904;23;20032;-82
2022/01/11 01:28:47;;;;;;;51.13;26.15;;;0.10;99.90;;;;;;6169821;23;20012;-81
2022/01/11 01:31:14;;;;;;;61.45;28.38;;;0.60;99.90;;;;;;6168850;23;20091;-81
2022/01/11 01:33:39;;;;;;;63.05;28.45;;;-0.90;99.90;;;;;;6169141;23;20021;-83
2022/01/11 01:36:11;;;;;;;52.45;27.30;;;0.30;99.90;;;;;;6170354;23;20078;-82
2022/01/11 01:38:38;;;;;;;64.07;29.55;;;-0.20;99.90;;;;;;6192886;23;20035;-81
2022/01/11 01:41:15;;;;;;;51.17;27.73;;;-0.60;99.90;;;;;;6194927;23;20014;-82
2022/01/11 01:43:43;;;;;;;60.10;28.38;;;0.30;99.90;;;;;;6169773;23;20024;-82
2022/01/11 01:46:09;;;;;;;50.17;27.75;;;-1.10;99.90;;;;;;6169682;23;20012;-81
2022/01/11 01:48:36;;;;;;;63.53;27.55;;;-0.70;99.90;;;;;;6169203;23;20022;-81
2022/01/11 01:51:03;;;;;;;77.90;29.33;;;0.40;99.90;;;;;;6170115;23;20012;-82
2022/01/11 01:53:29;;;;;;;64.32;26.45;;;0.50;99.90;;;;;;6169821;23;20079;-83
2022/01/11 01:55:55;;;;;;;66.72;28.30;;;0.30;99.90;;;;;;6165603;23;20406;-81
2022/01/11 01:58:21;;;;;;;75.88;27.73;;;0.30;99.90;;;;;;6162810;23;20020;-82
2022/01/11 02:00:54;;;;;;;52.22;28.20;;;0.30;99.90;;;;;;6162922;23;20035;-83
2022/01/11 02:03:26;;;;;;;70.90;29.20;;;-0.60;99.90;;;;;;6162154;23;20016;-82
2022/01/11 02:05:53;;;;;;;51.47;28.45;;;-0.40;99.90;;;;;;6163265;23;20016;-82
2022/01/11 02:08:19;;;;;;;69.15;29.55;;;0.50;99.90;;;;;;6162314;23;20015;-81
2022/01/11 02:10:45;;;;;;;63.05;29.42;;;0.50;99.90;;;;;;6187769;23;20048;-82
2022/01/11 02:13:11;;;;;;;57.63;28.55;;;0.10;99.90;;;;;;6162582;23;20336;-82
2022/01/11 02:15:37;;;;;;;61.22;29.17;;;-0.70;99.90;;;;;;6162419;23;20344;-81
2022/01/11 02:18:24;;;;;;;59.05;29.90;;;-0.80;99.90;;;;;;6161491;23;20012;-82
2022/01/11 02:20:50;;;;;;;57.40;29.75;;;-0.30;99.90;;;;;;6162290;23;20028;-81
2022/01/11 02:23:18;;;;;;;55.08;28.83;;;-0.80;99.90;;;;;;6186177;23;20023;-81
2022/01/11 02:25:45;;;;;;;55.72;28.05;;;0.80;99.90;;;;;;6186806;23;20019;-82
2022/01/11 02:28:13;;;;;;;61.90;28.35;;;-0.10;99.90;;;;;;6161877;23;20052;-83
2022/01/11 02:30:39;;;;;;;65.53;29.88;;;0.00;99.90;;;;;;6163621;23;20087;-82
2022/01/11 02:33:12;;;;;;;65.93;30.48;;;0.10;99.90;;;;;;6163119;23;20028;-82
2022/01/11 02:35:38;;;;;;;61.08;31.05;;;-0.50;99.90;;;;;;6163715;23;20031;-82
2022/01/11 02:38:04;;;;;;;64.40;30.73;;;0.50;99.90;;;;;;6162755;23;20381;-83
2022/01/11 02:40:29;;;;;;;68.47;31.13;;;0.60;99.90;;;;;;6187830;23;20096;-82
2022/01/11 02:42:55;;;;;;;63.42;31.00;;;-0.60;99.90;;;;;;6162266;23;20369;-83
2022/01/11 02:45:21;;;;;;;66.75;30.85;;;0.70;99.90;;;;;;6187730;23;20021;-83
2022/01/11 02:47:49;;;;;;;66.82;31.38;;;-0.60;99.90;;;;;;6161802;23;20036;-82
2022/01/11 02:50:15;;;;;;;70.63;31.40;;;-0.40;99.90;;;;;;6187210;23;20166;-82
2022/01/11 02:52:41;;;;;;;76.63;32.33;;;-0.40;99.90;;;;;;6186579;23;20019;-82
2022/01/11 02:55:10;;;;;;;65.38;28.13;;;0.80;99.90;;;;;;6161820;23;20091;-81
2022/01/11 02:57:36;;;;;;;89.85;33.45;;;-0.30;99.90;;;;;;6161837;23;20021;-81
2022/01/11 03:00:05;;;;;;;96.50;33.72;;;0.20;99.90;;;;;;6162789;23;20031;-82
2022/01/11 03:03:12;;;;;;;81.72;32.25;;;-0.30;99.90;;;;;;6162562;23;20074;-82
2022/01/11 03:05:44;;;;;;;117.18;33.38;;;-0.20;99.90;;;;;;6162846;23;20013;-82
2022/01/11 03:08:11;;;;;;;131.52;31.60;;;0.00;99.90;;;;;;6161098;23;20012;-83
2022/01/11 03:10:37;;;;;;;108.28;34.38;;;-0.30;99.90;;;;;;6162369;23;20009;-82
2022/01/11 03:13:05;;;;;;;114.40;33.58;;;-0.20;99.90;;;;;;6161997;23;20091;-82
2022/01/11 03:15:31;;;;;;;155.20;36.90;;;0.40;99.90;;;;;;6162450;23;20391;-83
2022/01/11 03:17:56;;;;;;;100.43;30.92;;;-0.20;99.90;;;;;;6162093;23;20016;-82
2022/01/11 03:20:22;;;;;;;118.30;35.28;;;0.40;99.90;;;;;;6162915;23;20020;-82
2022/01/11 03:22:49;;;;;;;95.32;33.63;;;-0.20;99.90;;;;;;6212735;23;20047;-84
2022/01/11 03:25:16;;;;;;;122.07;37.58;;;-0.10;99.90;;;;;;6188908;23;20032;-81
2022/01/11 03:27:42;;;;;;;122.82;37.15;;;-0.20;99.90;;;;;;6188024;23;20039;-81
2022/01/11 03:30:08;;;;;;;123.57;37.70;;;-0.10;99.90;;;;;;6185089;23;20017;-81
2022/01/11 03:32:34;;;;;;;128.55;37.90;;;-0.10;99.90;;;;;;6184995;23;20024;-81
2022/01/11 03:35:06;;;;;;;105.65;34.05;;;-0.10;99.90;;;;;;6189063;23;20039;-82
2022/01/11 03:37:32;;;;;;;126.70;37.78;;;0.00;99.90;;;;;;6208801;23;20053;-84
2022/01/11 03:40:00;;;;;;;103.60;37.67;;;0.00;99.90;;;;;;6161496;23;20092;-84
2022/01/11 03:42:29;;;;;;;122.60;37.20;;;-0.10;99.90;;;;;;6160932;23;20020;-84
2022/01/11 03:44:57;;;;;;;111.70;36.65;;;0.00;99.90;;;;;;6161225;23;20321;-83
2022/01/11 03:47:37;;;;;;;103.57;36.53;;;0.60;99.90;;;;;;6161713;23;20017;-83
2022/01/11 03:50:05;;;;;;;116.28;37.50;;;0.20;99.90;;;;;;6161542;23;20013;-84
2022/01/11 03:52:31;;;;;;;129.10;40.13;;;-0.10;99.90;;;;;;6161855;23;20016;-84
2022/01/11 03:57:28;;;;;;;106.20;36.78;;;-0.30;99.90;;;;;;6186380;23;20036;-82
2022/01/11 04:03:03;;;;;;;96.88;36.22;;;-0.10;99.90;;;;;;6067712;23;20022;-82
2022/01/11 04:05:29;;;;;;;120.13;37.60;;;-0.10;99.90;;;;;;6067288;23;20363;-82
2022/01/11 04:08:07;;;;;;;98.75;36.45;;;-0.40;99.90;;;;;;6091409;23;20024;-83
2022/01/11 04:10:35;;;;;;;114.82;36.30;;;-0.10;99.90;;;;;;6068299;23;20083;-83
2022/01/11 04:13:01;;;;;;;95.60;37.28;;;-0.20;99.90;;;;;;6042457;23;20117;-83
2022/01/11 04:15:28;;;;;;;121.28;36.38;;;0.30;99.90;;;;;;6044213;23;20046;-82
2022/01/11 04:17:59;;;;;;;122.82;37.70;;;-0.10;99.90;;;;;;6067470;23;20121;-82
2022/01/11 04:20:27;;;;;;;141.77;37.92;;;-0.10;99.90;;;;;;6066931;23;20025;-83
2022/01/11 04:22:55;;;;;;;117.00;36.20;;;0.80;99.90;;;;;;6067709;23;20026;-84
2022/01/11 04:25:21;;;;;;;124.00;37.50;;;0.40;99.90;;;;;;6067559;23;20025;-83
2022/01/11 04:27:46;;;;;;;130.25;34.95;;;-0.20;99.90;;;;;;6044117;23;20010;-83
2022/01/11 04:30:12;;;;;;;109.93;34.80;;;0.30;99.90;;;;;;6068017;23;20116;-82
2022/01/11 04:32:38;;;;;;;99.18;33.55;;;0.50;99.90;;;;;;6067776;23;20010;-83
2022/01/11 04:35:07;;;;;;;93.32;33.95;;;0.70;99.90;;;;;;6068857;23;20018;-83
2022/01/11 04:37:33;;;;;;;116.38;36.28;;;0.00;99.90;;;;;;6044195;23;20342;-81
2022/01/11 04:39:59;;;;;;;118.68;35.58;;;-0.10;99.90;;;;;;6103133;23;20032;-82
2022/01/11 04:42:24;;;;;;;113.30;35.63;;;0.70;99.90;;;;;;6162153;23;20023;-81
2022/01/11 04:44:51;;;;;;;89.75;32.85;;;0.60;99.90;;;;;;6186909;23;20196;-82
2022/01/11 04:47:17;;;;;;;120.35;37.00;;;-0.20;99.90;;;;;;6186018;23;20563;-81
2022/01/11 04:49:43;;;;;;;106.05;34.47;;;-0.10;99.90;;;;;;6161414;23;20019;-83
2022/01/11 04:52:08;;;;;;;106.53;35.13;;;-0.10;99.90;;;;;;6186641;23;20306;-81
2022/01/11 04:54:34;;;;;;;119.25;36.50;;;-0.10;99.90;;;;;;6186475;23;20444;-81
2022/01/11 04:56:59;;;;;;;96.15;35.00;;;-0.10;99.90;;;;;;6161359;23;20059;-83
2022/01/11 04:59:28;;;;;;;109.97;35.38;;;-0.10;99.90;;;;;;6186787;23;20071;-81
2022/01/11 05:02:07;;;;;;;109.18;33.50;;;-0.10;99.90;;;;;;6189164;23;20429;-81
2022/01/11 05:04:33;;;;;;;98.38;32.92;;;0.50;99.90;;;;;;6187021;23;20112;-81
2022/01/11 05:06:59;;;;;;;98.00;33.28;;;-0.10;99.90;;;;;;6186575;23;20460;-82
2022/01/11 05:09:25;;;;;;;87.28;32.50;;;0.00;99.90;;;;;;6160963;23;20139;-84
2022/01/11 05:11:51;;;;;;;99.05;33.78;;;0.90;99.90;;;;;;6187141;23;20464;-81
2022/01/11 05:14:17;;;;;;;90.38;31.40;;;1.00;99.90;;;;;;6186174;23;20092;-82
2022/01/11 05:16:42;;;;;;;92.78;32.33;;;1.20;99.90;;;;;;6162212;23;20044;-83
2022/01/11 05:19:12;;;;;;;91.15;33.15;;;0.50;99.90;;;;;;6161380;23;20028;-82
2022/01/11 05:21:39;;;;;;;95.68;33.22;;;0.30;99.90;;;;;;6186626;23;20326;-83
2022/01/11 05:24:06;;;;;;;89.70;33.40;;;0.10;99.90;;;;;;6160506;23;20024;-83
2022/01/11 05:26:32;;;;;;;80.70;32.53;;;0.10;99.90;;;;;;6212625;23;20004;-83
2022/01/11 05:28:58;;;;;;;79.55;31.20;;;0.10;99.90;;;;;;6161309;23;20112;-82
2022/01/11 05:31:24;;;;;;;75.82;31.63;;;0.10;99.90;;;;;;6162734;23;20310;-82
2022/01/11 05:33:50;;;;;;;73.85;30.38;;;0.20;99.90;;;;;;6187410;23;20020;-81
2022/01/11 05:36:15;;;;;;;81.43;32.03;;;0.10;99.90;;;;;;6162812;23;20028;-84
2022/01/11 05:38:42;;;;;;;66.15;29.05;;;0.80;99.90;;;;;;6214044;23;20016;-83
2022/01/11 05:41:07;;;;;;;90.43;33.53;;;0.20;99.90;;;;;;6163043;23;20020;-83
2022/01/11 05:43:35;;;;;;;86.55;32.40;;;0.10;99.90;;;;;;6163117;23;20013;-82
2022/01/11 05:46:02;;;;;;;76.38;31.98;;;0.10;99.90;;;;;;6161915;23;20027;-83
2022/01/11 05:48:28;;;;;;;77.90;31.40;;;0.00;99.90;;;;;;6186347;23;20020;-82
2022/01/11 05:50:53;;;;;;;90.00;32.78;;;0.10;99.90;;;;;;6214198;23;20009;-82
2022/01/11 05:53:19;;;;;;;74.55;31.85;;;0.10;99.90;;;;;;6162636;23;20013;-83
2022/01/11 05:55:45;;;;;;;74.78;30.08;;;0.00;99.90;;;;;;6162762;23;20009;-84
2022/01/11 05:58:10;;;;;;;70.68;30.38;;;0.10;99.90;;;;;;6187548;23;20020;-81
2022/01/11 06:00:36;;;;;;;72.63;30.77;;;0.60;99.90;;;;;;6187394;23;20039;-84
2022/01/11 06:03:03;;;;;;;73.47;30.92;;;1.40;99.90;;;;;;6162587;23;20341;-83
2022/01/11 06:05:31;;;;;;;81.07;31.50;;;0.10;99.90;;;;;;6187773;23;20321;-84
2022/01/11 06:07:56;;;;;;;71.45;30.27;;;1.10;99.90;;;;;;6162426;23;20021;-83
2022/01/11 06:10:22;;;;;;;68.35;30.15;;;0.10;99.90;;;;;;6187553;23;20452;-82
2022/01/11 06:12:48;;;;;;;72.70;31.13;;;1.30;99.90;;;;;;6187609;23;20075;-81
2022/01/11 06:15:14;;;;;;;72.43;30.42;;;0.40;99.90;;;;;;6162295;23;20055;-81
2022/01/11 06:17:39;;;;;;;70.22;29.63;;;1.30;99.90;;;;;;6187217;23;20321;-81
2022/01/11 06:20:06;;;;;;;71.43;30.20;;;0.10;99.90;;;;;;6187726;23;20082;-82
2022/01/11 06:22:31;;;;;;;66.18;29.48;;;0.00;99.90;;;;;;6163203;23;20023;-82
2022/01/11 06:24:57;;;;;;;66.18;29.50;;;0.00;99.90;;;;;;6186729;23;20349;-80
2022/01/11 06:27:23;;;;;;;67.72;29.48;;;-0.20;99.90;;;;;;6162904;23;20013;-81
2022/01/11 06:29:48;;;;;;;66.55;29.42;;;0.00;99.90;;;;;;6214577;23;20008;-84
2022/01/11 06:32:14;;;;;;;64.82;29.05;;;-0.10;99.90;;;;;;6186686;23;20103;-83
2022/01/11 06:34:40;;;;;;;73.43;29.80;;;0.90;99.90;;;;;;6187545;23;20019;-82
2022/01/11 06:37:05;;;;;;;66.25;28.67;;;0.00;99.90;;;;;;6162905;23;20051;-83
2022/01/11 06:39:36;;;;;;;62.53;28.58;;;-0.10;99.90;;;;;;6162403;23;20012;-81
2022/01/11 06:42:02;;;;;;;66.05;30.02;;;0.00;99.90;;;;;;6186979;23;20039;-83
2022/01/11 06:44:28;;;;;;;68.60;29.08;;;0.00;99.90;;;;;;6161910;23;20040;-81
2022/01/11 06:46:54;;;;;;;70.57;29.83;;;0.60;99.90;;;;;;6186624;23;20024;-83
2022/01/11 06:49:24;;;;;;;68.15;29.63;;;0.80;99.90;;;;;;6163410;23;20014;-78
2022/01/11 06:51:50;;;;;;;57.25;27.83;;;0.50;99.90;;;;;;6186668;23;20013;-80
2022/01/11 06:54:16;;;;;;;53.55;25.65;;;1.00;99.90;;;;;;6161569;23;20024;-79
2022/01/11 06:56:41;;;;;;;62.65;26.67;;;0.60;99.90;;;;;;6186673;23;20012;-80
2022/01/11 06:59:11;;;;;;;61.58;27.27;;;0.40;99.90;;;;;;6186355;23;20013;-82
2022/01/11 07:01:38;;;;;;;51.03;25.15;;;0.40;99.90;;;;;;6186673;23;20471;-82
2022/01/11 07:04:04;;;;;;;59.22;26.15;;;0.70;99.90;;;;;;6161549;23;20079;-79
2022/01/11 07:06:34;;;;;;;60.17;27.60;;;0.50;99.90;;;;;;6187533;23;20361;-85
2022/01/11 07:09:00;;;;;;;60.53;26.35;;;0.40;99.90;;;;;;6160603;23;20567;-86
2022/01/11 07:11:25;;;;;;;62.20;26.52;;;1.30;99.90;;;;;;6185972;23;20051;-84
2022/01/11 07:13:51;;;;;;;56.03;26.42;;;0.20;99.90;;;;;;6161283;23;20017;-80
2022/01/11 07:16:35;;;;;;;59.58;27.15;;;0.80;99.90;;;;;;6161532;23;20021;-82
2022/01/11 07:19:01;;;;;;;60.70;28.00;;;0.10;99.90;;;;;;6160448;23;20043;-79
2022/01/11 07:21:59;;;;;;;70.78;29.50;;;0.50;99.90;;;;;;6186796;23;20385;-83
2022/01/11 07:24:40;;;;;;;59.08;26.70;;;0.80;99.90;;;;;;6158698;23;20372;-81
2022/01/11 07:27:12;;;;;;;66.95;28.58;;;-0.10;99.90;;;;;;6186827;23;20504;-82
2022/01/11 07:30:08;;;;;;;65.65;27.77;;;0.30;99.90;;;;;;6163416;23;20433;-82
2022/01/11 07:32:58;;;;;;;68.13;28.80;;;-0.20;99.90;;;;;;6186077;23;20019;-83
2022/01/11 07:35:24;;;;;;;66.82;27.27;;;-0.50;99.90;;;;;;6162334;23;20039;-80
2022/01/11 07:37:53;;;;;;;68.30;29.27;;;0.90;99.90;;;;;;6187162;23;20047;-83
2022/01/11 07:40:20;;;;;;;63.85;27.75;;;0.50;99.90;;;;;;6163698;23;20011;-83
2022/01/11 07:42:46;;;;;;;60.08;27.65;;;0.30;99.90;;;;;;6188635;23;20028;-85
2022/01/11 07:45:12;;;;;;;62.65;27.33;;;0.00;99.90;;;;;;6160172;23;20013;-81
2022/01/11 07:47:37;;;;;;;60.58;27.23;;;0.00;99.90;;;;;;6185654;23;20044;-81
2022/01/11 07:50:06;;;;;;;57.88;25.05;;;0.00;99.90;;;;;;6186163;23;20016;-81
2022/01/11 07:55:21;;;;;;;53.70;25.25;;;0.20;99.90;;;;;;6183719;23;20025;-81
2022/01/11 07:57:46;;;;;;;56.03;26.38;;;0.30;99.90;;;;;;6159791;23;20083;-80
2022/01/11 08:00:13;;;;;;;56.03;26.52;;;0.20;99.90;;;;;;6160990;23;20124;-79
2022/01/11 08:03:21;;;;;;;65.43;27.40;;;0.10;99.90;;;;;;6184595;23;20048;-85
2022/01/11 08:05:52;;;;;;;54.92;25.02;;;-0.50;99.90;;;;;;6043153;23;20391;-82
2022/01/11 08:08:20;;;;;;;55.60;25.48;;;0.20;99.90;;;;;;6010574;23;20487;-79
2022/01/11 08:10:46;;;;;;;58.15;25.88;;;0.20;99.90;;;;;;6010097;23;20019;-78
2022/01/11 08:13:12;;;;;;;62.50;25.83;;;0.20;99.90;;;;;;6010118;23;20038;-79
2022/01/11 08:15:38;;;;;;;54.45;24.65;;;0.20;99.90;;;;;;6010653;23;20016;-79
2022/01/11 08:18:25;;;;;;;54.13;25.10;;;0.20;99.90;;;;;;6009630;23;20392;-84
2022/01/11 08:20:54;;;;;;;57.22;25.80;;;0.40;99.90;;;;;;5985989;23;20046;-86
2022/01/11 08:23:25;;;;;;;51.67;24.50;;;1.30;99.90;;;;;;6009934;23;20102;-85
2022/01/11 08:26:44;;;;;;;50.15;23.63;;;2.10;99.90;;;;;;6011347;23;20584;-85
2022/01/11 08:33:18;;;;;;;56.05;25.33;;;0.80;99.90;;;;;;5894801;24;20370;-84
2022/01/11 08:35:44;;;;;;;49.55;23.77;;;-0.20;99.90;;;;;;5837359;24;20027;-79
2022/01/11 08:38:15;;;;;;;49.85;24.23;;;1.00;99.90;;;;;;5836916;24;20088;-81
2022/01/11 08:40:41;;;;;;;54.17;22.98;;;0.60;99.90;;;;;;5890101;24;20451;-81
2022/01/11 08:43:07;;;;;;;56.72;25.88;;;0.30;99.90;;;;;;5923703;24;20023;-81
2022/01/11 08:45:36;;;;;;;50.65;23.73;;;1.60;99.90;;;;;;5977566;24;20313;-80
2022/01/11 08:48:02;;;;;;;52.85;24.23;;;0.40;99.90;;;;;;5954252;24;20012;-79
2022/01/11 08:50:28;;;;;;;52.05;24.02;;;0.40;99.90;;;;;;5930935;24;20758;-80
2022/01/11 08:52:54;;;;;;;52.30;24.38;;;0.40;99.90;;;;;;5955029;24;20029;-81
2022/01/11 08:55:19;;;;;;;52.53;22.92;;;0.40;99.90;;;;;;6000405;23;20023;-79
2022/01/11 08:57:45;;;;;;;52.50;22.45;;;0.30;99.90;;;;;;5954657;24;20318;-81
2022/01/11 09:00:17;;;;;;;51.15;24.00;;;0.40;99.90;;;;;;5976762;24;20028;-81
2022/01/11 09:02:53;;;;;;;51.10;24.70;;;0.40;99.90;;;;;;5954291;24;20039;-81
2022/01/11 09:05:20;;;;;;;42.67;21.17;;;0.40;99.90;;;;;;5991469;23;20019;-79
2022/01/11 09:11:09;;;;;;;48.85;21.05;;;0.70;99.90;;;;;;6098920;23;20018;-86
2022/01/11 09:13:36;;;;;;;41.65;19.92;;;1.30;99.90;;;;;;6074064;23;20041;-84
2022/01/11 09:16:11;;;;;;;40.95;20.17;;;1.50;99.90;;;;;;6075954;23;20010;-84
2022/01/11 09:22:26;;;;;;;40.20;19.95;;;0.40;99.90;;;;;;6036298;23;20015;-86
2022/01/11 09:25:59;;;;;;;36.28;19.35;;;0.70;99.90;;;;;;6011697;23;20054;-87
2022/01/11 09:28:34;;;;;;;44.38;20.15;;;0.10;99.90;;;;;;5949982;24;20024;-85
2022/01/11 09:31:00;;;;;;;42.08;20.83;;;1.50;99.90;;;;;;5928609;24;20069;-85
2022/01/11 09:33:47;;;;;;;38.65;19.75;;;1.00;99.90;;;;;;5927852;24;20061;-85
2022/01/11 09:36:22;;;;;;;38.40;19.45;;;0.40;99.90;;;;;;5951920;24;20027;-84
2022/01/11 09:39:06;;;;;;;36.80;19.15;;;1.30;99.90;;;;;;5895838;24;20043;-83
2022/01/11 09:41:32;;;;;;;38.83;20.15;;;1.60;99.90;;;;;;5873678;24;20097;-80
2022/01/11 09:43:58;;;;;;;39.33;20.23;;;0.40;99.90;;;;;;5873921;24;20096;-79
2022/01/11 09:46:28;;;;;;;36.97;17.50;;;0.80;99.90;;;;;;5879178;24;20017;-80
2022/01/11 09:49:16;;;;;;;36.80;18.75;;;1.20;99.90;;;;;;5905058;24;20077;-81
2022/01/11 09:51:42;;;;;;;34.72;19.08;;;0.50;99.90;;;;;;5929196;24;20157;-80
2022/01/11 09:54:12;;;;;;;31.88;16.48;;;-0.30;99.90;;;;;;5928599;24;20044;-80
2022/01/11 10:00:09;;;;;;;50.45;16.70;;;0.50;99.90;;;;;;6066777;23;20359;-78
2022/01/11 10:02:44;;;;;;;35.25;17.88;;;1.90;99.90;;;;;;6074016;23;20037;-81
2022/01/11 10:05:38;;;;;;;27.55;16.48;;;1.90;99.90;;;;;;6072201;23;20106;-80
2022/01/11 10:12:14;;;;;;;32.95;17.83;;;0.70;99.90;;;;;;6092309;23;20105;-83
2022/01/11 10:15:45;;;;;;;31.05;17.10;;;1.00;99.90;;;;;;6068937;23;20070;-83
2022/01/11 10:18:33;;;;;;;30.08;16.60;;;1.20;99.90;;;;;;5899536;24;20021;-86
2022/01/11 10:20:58;;;;;;;33.03;17.33;;;1.40;99.90;;;;;;5878101;24;20055;-85
2022/01/11 10:23:33;;;;;;;36.75;19.08;;;0.70;99.90;;;;;;5876850;24;20387;-84
2022/01/11 10:26:02;;;;;;;;;;;1.30;99.90;;;;;;5901121;24;20104;-85
2022/01/11 10:29:44;;;;;;;30.52;17.67;;;1.50;99.90;;;;;;5877832;24;19919;-84
2022/01/11 10:32:24;;;;;;;34.75;18.98;;;0.70;99.90;;;;;;5796436;24;20079;-82
2022/01/11 10:34:56;;;;;;;37.30;19.17;;;0.80;99.90;;;;;;5819988;24;20022;-85
2022/01/11 10:37:32;;;;;;;32.03;19.02;;;0.80;99.90;;;;;;5842782;24;20114;-84
2022/01/11 10:40:16;;;;;;;40.88;21.02;;;0.70;99.90;;;;;;5842650;24;20046;-83
2022/01/11 10:42:46;;;;;;;35.30;19.58;;;0.70;99.90;;;;;;5820390;24;20033;-83
2022/01/11 10:45:21;;;;;;;34.35;18.95;;;0.80;99.90;;;;;;5820133;24;20061;-84
2022/01/11 10:47:53;;;;;;;35.58;19.55;;;0.80;99.90;;;;;;5846954;24;20139;-84
2022/01/11 10:50:59;;;;;;;39.85;20.63;;;0.70;99.90;;;;;;5898896;24;20017;-81
2022/01/11 10:53:39;;;;;;;39.83;20.40;;;0.40;99.90;;;;;;5930804;24;20458;-79
2022/01/11 10:56:09;;;;;;;41.30;20.83;;;0.80;99.90;;;;;;6052233;23;20014;-79
2022/01/11 10:58:39;;;;;;;38.25;20.27;;;0.80;99.90;;;;;;6088515;23;20037;-80
2022/01/11 11:01:11;;;;;;;38.33;19.80;;;1.50;99.90;;;;;;6096019;23;20101;-80
2022/01/11 11:03:53;;;;;;;40.03;20.33;;;0.80;99.90;;;;;;6172828;23;20009;-78
2022/01/11 11:06:31;;;;;;;40.35;21.75;;;1.60;99.90;;;;;;6125334;23;20024;-79
2022/01/11 11:09:30;;;;;;;40.00;20.35;;;1.90;99.90;;;;;;6124383;23;20017;-81
2022/01/11 11:16:51;;;;;;;;;;;;;;;;;;;;;
2022/01/11 11:23:42;;;;;;;38.45;21.15;;;0.80;99.90;;;;;;5923567;24;20013;-83
2022/01/11 11:26:51;;;;;;;35.95;19.80;;;2.80;99.90;;;;;;5899999;24;20061;-82
2022/01/11 11:29:59;;;;;;;35.08;20.85;;;1.90;99.90;;;;;;5899241;23;20021;-80
2022/01/11 11:32:35;;;;;;;36.00;19.95;;;2.10;99.90;;;;;;5898324;24;20386;-79
2022/01/11 11:35:02;;;;;;;36.08;19.95;;;2.30;99.90;;;;;;5921565;24;20382;-78
2022/01/11 11:37:33;;;;;;;41.13;21.23;;;3.00;99.90;;;;;;5927299;24;20023;-82
2022/01/11 11:40:21;;;;;;;38.03;21.38;;;2.40;99.90;;;;;;5975924;23;20038;-82
2022/01/11 11:42:53;;;;;;;35.75;20.65;;;2.50;99.90;;;;;;5931059;24;20016;-81
2022/01/11 11:45:30;;;;;;;36.97;21.15;;;2.60;99.90;;;;;;5955320;23;20072;-81
2022/01/11 11:48:10;;;;;;;37.40;19.80;;;2.70;99.90;;;;;;5978489;24;20044;-82
2022/01/11 11:51:07;;;;;;;33.30;19.15;;;2.70;99.90;;;;;;6079746;23;20145;-82
2022/01/11 11:53:34;;;;;;;33.45;19.83;;;2.70;99.90;;;;;;6133199;23;20090;-82
2022/01/11 11:56:22;;;;;;;32.05;19.55;;;2.70;99.90;;;;;;6162112;23;20015;-82
2022/01/11 11:58:49;;;;;;;33.45;19.67;;;2.70;99.90;;;;;;6186634;23;20023;-80
2022/01/11 12:01:42;;;;;;;32.75;19.63;;;2.60;99.90;;;;;;6161500;23;20291;-81
2022/01/11 12:04:31;;;;;;;32.72;19.00;;;2.60;99.90;;;;;;6186478;23;20044;-81
2022/01/11 12:07:20;;;;;;;34.63;19.23;;;3.00;99.90;;;;;;6144611;23;20044;-80
2022/01/11 12:09:51;;;;;;;37.78;20.05;;;2.50;99.90;;;;;;6187113;23;20366;-80
2022/01/11 12:12:40;;;;;;;35.25;19.17;;;3.00;99.90;;;;;;6188032;23;20012;-81
2022/01/11 12:15:32;;;;;;;34.63;18.85;;;2.50;99.90;;;;;;6162345;23;20023;-82
2022/01/11 12:18:00;;;;;;;31.10;18.60;;;2.50;99.90;;;;;;6161069;23;20067;-81
2022/01/11 12:20:47;;;;;;;34.17;18.90;;;2.60;99.90;;;;;;6161967;23;20012;-82
2022/01/11 12:23:20;;;;;;;32.83;19.52;;;2.60;99.90;;;;;;6186130;23;20020;-81
2022/01/11 12:25:53;;;;;;;35.17;19.27;;;3.40;99.90;;;;;;6187551;23;20088;-80
2022/01/11 12:28:23;;;;;;;39.40;19.10;;;2.70;99.90;;;;;;6162039;23;20008;-82
2022/01/11 12:30:49;;;;;;;34.33;19.55;;;2.70;99.90;;;;;;6162427;23;20417;-80
2022/01/11 12:33:25;;;;;;;33.80;19.83;;;2.60;99.90;;;;;;6186752;23;20015;-81
2022/01/11 12:35:53;;;;;;;34.20;19.17;;;2.70;99.90;;;;;;6187191;23;20035;-81
2022/01/11 12:38:20;;;;;;;34.42;18.98;;;2.60;99.90;;;;;;6161987;23;20052;-81
2022/01/11 12:40:47;;;;;;;35.17;19.17;;;2.70;99.90;;;;;;6162696;23;20008;-81
2022/01/11 12:43:20;;;;;;;35.05;19.48;;;2.70;99.90;;;;;;6185028;23;20016;-78
2022/01/11 12:46:07;;;;;;;38.55;18.55;;;2.80;99.90;;;;;;6186882;23;20115;-80
2022/01/11 12:48:57;;;;;;;28.95;17.58;;;2.80;99.90;;;;;;6186112;23;20023;-80
2022/01/11 12:51:30;;;;;;;35.95;19.05;;;2.80;99.90;;;;;;6161910;23;20020;-79
2022/01/11 12:54:24;;;;;;;35.75;19.33;;;2.70;99.90;;;;;;6185957;23;20037;-79
2022/01/11 12:57:14;;;;;;;34.30;18.85;;;2.80;99.90;;;;;;6161358;23;20013;-80
2022/01/11 12:59:45;;;;;;;37.05;19.20;;;2.80;99.90;;;;;;6161037;23;20021;-78
2022/01/11 13:02:19;;;;;;;40.00;19.77;;;2.80;99.90;;;;;;6186269;23;20024;-79
2022/01/11 13:04:52;;;;;;;34.22;19.50;;;2.80;99.90;;;;;;6160392;23;20560;-79
2022/01/11 13:07:18;;;;;;;32.88;19.42;;;2.90;99.90;;;;;;6161240;23;20020;-79
2022/01/11 13:09:45;;;;;;;36.60;19.73;;;2.90;99.90;;;;;;6212312;23;20012;-80
2022/01/11 13:12:34;;;;;;;36.25;20.10;;;2.90;99.90;;;;;;6185061;23;20075;-82
2022/01/11 13:15:36;;;;;;;35.63;18.88;;;2.90;99.90;;;;;;6160319;23;20028;-81
2022/01/11 13:18:10;;;;;;;30.77;18.13;;;3.10;99.90;;;;;;6187576;23;20016;-82
2022/01/11 13:20:39;;;;;;;35.17;20.42;;;3.00;99.90;;;;;;6185921;23;20016;-81
2022/01/11 13:25:38;;;;;;;32.80;18.70;;;3.10;99.90;;;;;;6187388;23;20097;-81
2022/01/11 13:28:05;;;;;;;39.10;19.00;;;3.10;99.90;;;;;;6161498;23;20017;-81
2022/01/11 13:30:45;;;;;;;32.42;19.15;;;3.10;99.90;;;;;;6186069;23;20008;-82
2022/01/11 13:33:24;;;;;;;32.17;18.08;;;3.20;99.90;;;;;;6161266;23;20036;-82
2022/01/11 13:35:50;;;;;;;32.95;18.73;;;3.20;99.90;;;;;;6161238;23;20044;-79
2022/01/11 13:38:16;;;;;;;33.88;17.58;;;3.20;99.90;;;;;;6186318;23;20075;-79
2022/01/11 13:40:43;;;;;;;31.63;18.35;;;3.30;99.90;;;;;;6186544;23;20039;-82
2022/01/11 13:43:13;;;;;;;31.60;17.17;;;3.30;99.90;;;;;;6161181;23;20421;-79
2022/01/11 13:45:41;;;;;;;28.88;17.33;;;3.20;99.90;;;;;;6161147;23;20017;-81
2022/01/11 13:48:15;;;;;;;31.10;17.35;;;3.80;99.90;;;;;;6159569;23;20012;-83
2022/01/11 13:51:00;;;;;;;27.83;16.70;;;3.50;99.90;;;;;;6185333;23;20013;-80
2022/01/11 13:53:27;;;;;;;26.13;16.08;;;3.40;99.90;;;;;;6161914;23;20255;-78
2022/01/11 13:56:03;;;;;;;29.20;15.40;;;3.30;99.90;;;;;;6188964;23;20019;-79
2022/01/11 13:58:30;;;;;;;30.45;17.27;;;3.40;99.90;;;;;;6187151;23;20031;-79
2022/01/11 14:00:59;;;;;;;34.20;19.42;;;3.40;99.90;;;;;;6188146;23;20016;-79
2022/01/11 14:03:28;;;;;;;28.13;17.25;;;3.40;99.90;;;;;;6161831;23;20103;-78
2022/01/11 14:05:55;;;;;;;35.22;19.88;;;3.40;99.90;;;;;;6187595;23;20024;-79
2022/01/11 14:08:31;;;;;;;30.02;15.75;;;3.40;99.90;;;;;;6213970;23;20013;-78
2022/01/11 14:11:06;;;;;;;35.25;19.35;;;3.40;99.90;;;;;;6187697;23;20042;-80
2022/01/11 14:13:33;;;;;;;32.28;17.15;;;3.40;99.90;;;;;;6188800;23;20051;-78
2022/01/11 14:16:07;;;;;;;30.90;17.13;;;3.40;99.90;;;;;;6186866;23;20036;-78
2022/01/11 14:18:33;;;;;;;25.27;15.52;;;3.40;99.90;;;;;;6186577;23;20019;-79
2022/01/11 14:21:25;;;;;;;30.65;18.80;;;3.40;99.90;;;;;;6187817;23;20048;-80
2022/01/11 14:23:52;;;;;;;34.67;20.80;;;3.40;99.90;;;;;;6181915;23;20074;-79
2022/01/11 14:26:18;;;;;;;39.83;21.45;;;3.40;99.90;;;;;;6163651;23;20087;-82
2022/01/11 14:28:50;;;;;;;37.85;22.17;;;3.40;99.90;;;;;;6162398;23;20040;-81